Time;durP1;ratioP1;P1;durP2;ratioP2;P2;SDS_P1;SDS_P2;PMS_P1;PMS_P2;Temp;Humidity;BMP_temperature;BMP_pressure;BME280_temperature;BME280_humidity;BME280_pressure;Samples;Min_cycle;Max_cycle;Signal;HPM_P1;HPM_P2
2022/06/06 00:01:16;;;;;;;4.80;4.40;;;20.80;51.40;;;;;;580146;246;26631;-66
2022/06/06 00:03:44;;;;;;;5.18;4.68;;;20.80;51.40;;;;;;580480;247;26643;-66
2022/06/06 00:06:11;;;;;;;5.40;3.87;;;20.80;51.50;;;;;;580419;248;26645;-66
2022/06/06 00:08:38;;;;;;;4.95;4.45;;;20.80;51.40;;;;;;580455;248;26606;-66
2022/06/06 00:11:05;;;;;;;4.85;4.35;;;20.70;51.40;;;;;;591171;242;26616;-66
2022/06/06 00:13:32;;;;;;;4.07;3.75;;;20.70;51.50;;;;;;580264;248;27103;-66
2022/06/06 00:16:00;;;;;;;4.65;4.22;;;20.70;51.50;;;;;;580221;247;26705;-66
2022/06/06 00:18:27;;;;;;;4.80;4.20;;;20.70;51.50;;;;;;580209;247;27110;-66
2022/06/06 00:20:54;;;;;;;4.72;4.32;;;20.70;51.70;;;;;;580197;247;26633;-66
2022/06/06 00:23:21;;;;;;;4.68;4.00;;;20.70;51.70;;;;;;579872;247;26921;-66
2022/06/06 00:25:48;;;;;;;4.57;4.18;;;20.60;51.50;;;;;;579896;247;26730;-66
2022/06/06 00:28:16;;;;;;;5.18;4.50;;;20.70;51.60;;;;;;579858;247;26912;-66
2022/06/06 00:30:43;;;;;;;5.85;4.40;;;20.70;51.60;;;;;;579885;248;26674;-66
2022/06/06 00:35:43;;;;;;;4.68;4.28;;;20.70;51.80;;;;;;579854;247;26701;-66
2022/06/06 00:38:10;;;;;;;4.65;4.22;;;20.60;51.80;;;;;;579875;247;26668;-66
2022/06/06 00:40:38;;;;;;;4.37;3.85;;;20.70;51.90;;;;;;579871;247;26661;-66
2022/06/06 00:43:06;;;;;;;4.22;3.87;;;20.60;51.90;;;;;;579826;247;26684;-66
2022/06/06 00:45:34;;;;;;;4.57;4.18;;;20.60;51.90;;;;;;579850;247;26680;-66
2022/06/06 00:48:18;;;;;;;4.35;3.95;;;20.60;51.90;;;;;;580976;246;26640;-66
2022/06/06 00:51:06;;;;;;;5.12;4.68;;;20.60;52.00;;;;;;580860;247;26632;-66
2022/06/06 00:53:37;;;;;;;4.82;4.32;;;20.70;52.10;;;;;;580530;247;26700;-66
2022/06/06 00:56:18;;;;;;;4.37;4.07;;;20.60;53.90;;;;;;580489;247;26740;-66
2022/06/06 00:58:43;;;;;;;4.40;4.00;;;20.60;53.90;;;;;;578990;248;26957;-67
2022/06/06 01:01:10;;;;;;;4.40;4.00;;;20.50;55.00;;;;;;580417;247;26584;-66
2022/06/06 01:03:38;;;;;;;5.43;4.12;;;20.50;56.60;;;;;;580401;247;26894;-66
2022/06/06 01:06:05;;;;;;;4.20;3.87;;;20.30;57.00;;;;;;590876;240;26637;-66
2022/06/06 01:08:33;;;;;;;4.40;4.05;;;20.20;59.00;;;;;;580117;247;26870;-66
2022/06/06 01:11:01;;;;;;;4.40;4.05;;;20.10;59.50;;;;;;580126;247;26629;-66
2022/06/06 01:13:28;;;;;;;4.50;4.10;;;20.00;61.00;;;;;;580134;247;26884;-66
2022/06/06 01:15:59;;;;;;;4.18;3.87;;;19.90;61.20;;;;;;580128;247;26677;-66
2022/06/06 01:18:30;;;;;;;4.70;4.40;;;19.80;61.00;;;;;;579419;248;26910;-66
2022/06/06 01:21:19;;;;;;;4.43;4.12;;;19.70;62.00;;;;;;579921;248;26839;-66
2022/06/06 01:23:50;;;;;;;4.70;4.40;;;19.70;62.50;;;;;;578896;248;26661;-66
2022/06/06 01:26:28;;;;;;;4.70;4.30;;;19.60;63.10;;;;;;590103;243;26837;-66
2022/06/06 01:29:03;;;;;;;4.70;4.30;;;19.60;62.60;;;;;;580065;246;26648;-66
2022/06/06 01:31:33;;;;;;;3.95;3.65;;;19.60;64.30;;;;;;580175;242;26605;-66
2022/06/06 01:34:00;;;;;;;4.28;3.97;;;19.60;65.50;;;;;;580419;247;26641;-66
2022/06/06 01:36:29;;;;;;;3.72;3.50;;;19.50;65.50;;;;;;579784;248;26693;-66
2022/06/06 01:38:57;;;;;;;4.55;4.10;;;19.40;66.80;;;;;;580367;248;26656;-68
2022/06/06 01:41:30;;;;;;;4.47;4.07;;;19.40;66.90;;;;;;579837;248;26885;-69
2022/06/06 01:43:58;;;;;;;4.65;4.25;;;19.40;66.30;;;;;;579351;244;26671;-69
2022/06/06 01:46:26;;;;;;;4.82;3.90;;;19.40;66.20;;;;;;579476;248;26637;-69
2022/06/06 01:48:52;;;;;;;4.18;3.87;;;19.30;67.30;;;;;;579769;248;26679;-69
2022/06/06 01:51:21;;;;;;;4.15;3.95;;;19.30;68.70;;;;;;579889;247;26692;-69
2022/06/06 01:53:48;;;;;;;4.12;3.83;;;19.30;68.50;;;;;;579806;247;26951;-69
2022/06/06 01:56:15;;;;;;;4.03;3.72;;;19.30;68.60;;;;;;579914;248;26660;-69
2022/06/06 01:58:42;;;;;;;4.05;3.75;;;19.30;68.80;;;;;;590765;241;27321;-69
2022/06/06 02:01:10;;;;;;;3.78;3.58;;;19.30;68.80;;;;;;581201;241;26674;-69
2022/06/06 02:03:36;;;;;;;3.95;3.65;;;19.30;69.00;;;;;;580728;247;27276;-69
2022/06/06 02:06:04;;;;;;;3.83;3.62;;;19.30;69.50;;;;;;580679;246;26720;-69
2022/06/06 02:08:32;;;;;;;4.22;3.75;;;19.30;69.40;;;;;;580530;246;26696;-69
2022/06/06 02:10:59;;;;;;;3.95;3.60;;;19.30;69.90;;;;;;580334;247;26604;-69
2022/06/06 02:13:26;;;;;;;4.43;3.80;;;19.20;69.80;;;;;;580326;247;26643;-69
2022/06/06 02:15:53;;;;;;;4.87;3.42;;;19.40;72.60;;;;;;580349;247;26935;-69
2022/06/06 02:18:22;;;;;;;4.32;3.75;;;19.30;71.20;;;;;;580077;247;26629;-69
2022/06/06 02:20:49;;;;;;;4.20;3.80;;;19.30;71.20;;;;;;580101;247;26871;-69
2022/06/06 02:23:16;;;;;;;4.47;4.07;;;19.20;72.30;;;;;;580060;241;26625;-69
2022/06/06 02:25:44;;;;;;;3.53;3.17;;;19.10;77.60;;;;;;580079;247;26909;-69
2022/06/06 02:28:11;;;;;;;5.28;3.75;;;19.00;77.10;;;;;;580057;247;26637;-69
2022/06/06 02:30:38;;;;;;;3.62;3.40;;;19.00;77.10;;;;;;580063;247;26888;-69
2022/06/06 02:33:06;;;;;;;4.00;3.70;;;18.90;78.00;;;;;;580037;247;26621;-68
2022/06/06 02:35:34;;;;;;;3.92;3.62;;;18.80;79.20;;;;;;579960;247;26721;-68
2022/06/06 02:38:02;;;;;;;4.18;3.80;;;18.80;79.20;;;;;;579813;248;26908;-69
2022/06/06 02:40:30;;;;;;;3.92;3.33;;;18.80;82.70;;;;;;579846;247;26684;-68
2022/06/06 02:42:56;;;;;;;3.60;3.30;;;18.80;84.40;;;;;;579755;248;26942;-69
2022/06/06 02:45:23;;;;;;;3.85;3.55;;;18.70;89.70;;;;;;579843;248;26710;-68
2022/06/06 02:47:50;;;;;;;3.80;3.55;;;18.80;87.20;;;;;;579874;247;27137;-69
2022/06/06 02:50:18;;;;;;;3.97;3.60;;;18.70;87.60;;;;;;579902;247;26708;-68
2022/06/06 02:52:45;;;;;;;4.25;3.85;;;18.70;87.80;;;;;;579793;248;26890;-68
2022/06/06 02:55:13;;;;;;;4.05;3.75;;;18.90;80.10;;;;;;579811;247;26691;-68
2022/06/06 02:57:41;;;;;;;4.20;3.90;;;18.90;80.00;;;;;;579856;247;26704;-68
2022/06/06 03:00:10;;;;;;;4.60;3.65;;;18.90;80.60;;;;;;579800;248;26684;-68
2022/06/06 03:02:37;;;;;;;4.30;4.00;;;18.90;80.60;;;;;;579859;247;26665;-68
2022/06/06 03:05:06;;;;;;;3.92;3.67;;;18.80;83.70;;;;;;579883;245;26724;-68
2022/06/06 03:07:36;;;;;;;4.10;3.78;;;18.80;83.90;;;;;;579895;248;27071;-68
2022/06/06 03:10:23;;;;;;;4.28;3.97;;;18.70;85.50;;;;;;579354;246;26702;-68
2022/06/06 03:12:58;;;;;;;4.30;4.00;;;18.70;85.50;;;;;;580140;247;26715;-68
2022/06/06 03:21:02;;;;;;;4.22;3.83;;;18.70;87.20;;;;;;580445;246;26628;-68
2022/06/06 03:23:54;;;;;;;4.45;4.05;;;18.70;88.60;;;;;;580028;248;26625;-68
2022/06/06 03:26:43;;;;;;;4.80;4.30;;;18.70;88.60;;;;;;587104;242;26649;-68
2022/06/06 03:29:27;;;;;;;3.90;3.70;;;18.70;89.40;;;;;;579980;248;26886;-68
2022/06/06 03:32:02;;;;;;;4.18;3.87;;;18.60;90.30;;;;;;589957;243;26610;-69
2022/06/06 03:34:55;;;;;;;3.92;3.62;;;18.50;91.70;;;;;;580059;247;26667;-69
2022/06/06 03:37:38;;;;;;;4.57;3.70;;;18.50;91.70;;;;;;577640;248;26865;-68
2022/06/06 03:40:12;;;;;;;4.15;3.83;;;18.40;93.60;;;;;;585978;243;26726;-68
2022/06/06 03:43:01;;;;;;;3.70;3.45;;;18.30;98.00;;;;;;579705;248;26914;-68
2022/06/06 03:45:30;;;;;;;3.80;3.50;;;18.00;99.90;;;;;;586185;242;26680;-68
2022/06/06 03:48:05;;;;;;;3.83;3.53;;;18.00;99.90;;;;;;579376;248;26672;-68
2022/06/06 03:50:47;;;;;;;4.20;3.22;;;17.90;99.90;;;;;;579446;248;26693;-68
2022/06/06 03:53:15;;;;;;;3.58;3.15;;;17.70;99.90;;;;;;579811;248;27509;-69
2022/06/06 03:55:56;;;;;;;3.60;3.30;;;17.50;99.90;;;;;;579461;248;26709;-69
2022/06/06 03:58:23;;;;;;;3.90;3.60;;;17.40;99.90;;;;;;579984;248;26657;-68
2022/06/06 04:00:51;;;;;;;4.05;3.70;;;17.30;99.90;;;;;;580131;248;26658;-68
2022/06/06 04:03:19;;;;;;;3.55;3.35;;;17.40;99.90;;;;;;580054;248;26657;-68
2022/06/06 04:05:47;;;;;;;4.30;3.90;;;17.30;99.90;;;;;;580217;247;26682;-68
2022/06/06 04:08:14;;;;;;;3.72;3.45;;;17.30;99.90;;;;;;580238;247;26648;-68
2022/06/06 04:11:00;;;;;;;4.15;3.78;;;17.30;99.90;;;;;;580218;247;26631;-69
2022/06/06 04:13:30;;;;;;;3.90;3.60;;;17.30;99.90;;;;;;579635;248;26665;-64
2022/06/06 04:16:01;;;;;;;4.25;3.78;;;17.20;99.90;;;;;;589609;240;26949;-64
2022/06/06 04:18:43;;;;;;;3.75;3.45;;;17.20;99.90;;;;;;579479;248;26656;-64
2022/06/06 04:21:12;;;;;;;3.83;3.62;;;17.20;99.90;;;;;;573372;248;26669;-65
2022/06/06 04:23:49;;;;;;;3.75;3.45;;;17.20;99.90;;;;;;580771;246;26631;-64
2022/06/06 04:26:18;;;;;;;3.90;3.70;;;17.20;99.90;;;;;;580870;248;26639;-64
2022/06/06 04:28:59;;;;;;;3.72;3.42;;;17.20;99.90;;;;;;580470;247;26689;-64
2022/06/06 04:31:42;;;;;;;4.22;3.90;;;17.20;99.90;;;;;;580360;247;27343;-64
2022/06/06 04:34:14;;;;;;;4.25;3.95;;;17.20;99.90;;;;;;586301;242;27343;-64
2022/06/06 04:36:41;;;;;;;3.55;3.33;;;17.30;99.90;;;;;;579573;248;26616;-64
2022/06/06 04:39:25;;;;;;;3.72;3.53;;;17.30;99.90;;;;;;579871;248;26641;-64
2022/06/06 04:41:59;;;;;;;4.10;3.80;;;17.40;99.90;;;;;;579743;244;26845;-64
2022/06/06 04:44:30;;;;;;;4.15;3.80;;;17.40;99.90;;;;;;579751;248;26674;-64
2022/06/06 04:47:02;;;;;;;3.75;3.55;;;17.40;99.90;;;;;;579652;248;26633;-64
2022/06/06 04:49:30;;;;;;;4.45;4.07;;;17.40;99.90;;;;;;579874;248;26636;-64
2022/06/06 04:51:57;;;;;;;3.72;3.53;;;17.50;99.90;;;;;;580036;248;27303;-64
2022/06/06 04:54:25;;;;;;;3.95;3.65;;;17.50;99.90;;;;;;580657;246;26661;-64
2022/06/06 04:56:53;;;;;;;3.92;3.70;;;17.50;99.90;;;;;;580149;248;26615;-64
2022/06/06 04:59:22;;;;;;;4.10;3.80;;;17.50;99.90;;;;;;579861;248;26636;-64
2022/06/06 05:01:49;;;;;;;4.10;3.87;;;17.50;99.90;;;;;;579723;248;26918;-64
2022/06/06 05:04:16;;;;;;;4.12;3.83;;;17.50;99.90;;;;;;579828;247;26680;-64
2022/06/06 05:07:10;;;;;;;4.35;4.05;;;17.60;99.90;;;;;;579875;247;27212;-64
2022/06/06 05:09:46;;;;;;;3.92;3.62;;;17.60;99.90;;;;;;569268;247;26712;-64
2022/06/06 05:12:15;;;;;;;4.12;3.90;;;17.60;99.90;;;;;;579526;247;26643;-64
2022/06/06 05:14:45;;;;;;;4.15;3.85;;;17.70;99.90;;;;;;579469;248;26680;-64
2022/06/06 05:17:30;;;;;;;4.40;4.00;;;17.70;99.90;;;;;;579399;248;26649;-64
2022/06/06 05:19:58;;;;;;;4.05;3.78;;;17.70;99.90;;;;;;579837;248;26656;-64
2022/06/06 05:22:47;;;;;;;3.95;3.75;;;17.70;99.90;;;;;;590416;243;26565;-64
2022/06/06 05:25:33;;;;;;;4.28;3.97;;;17.80;99.90;;;;;;579926;248;26659;-65
2022/06/06 05:28:17;;;;;;;4.15;3.87;;;17.90;99.90;;;;;;580512;242;26968;-65
2022/06/06 05:30:56;;;;;;;3.87;3.55;;;17.90;99.90;;;;;;580047;248;26642;-65
2022/06/06 05:33:38;;;;;;;4.30;4.00;;;18.00;99.90;;;;;;580623;246;26617;-65
2022/06/06 05:36:21;;;;;;;13.82;4.47;;;18.20;99.90;;;;;;590555;243;26625;-65
2022/06/06 05:38:53;;;;;;;4.50;4.10;;;18.20;99.90;;;;;;580679;242;26643;-65
2022/06/06 05:41:47;;;;;;;3.97;3.78;;;18.30;99.90;;;;;;579768;247;26625;-65
2022/06/06 05:44:41;;;;;;;4.20;3.90;;;18.30;99.90;;;;;;580124;247;26872;-65
2022/06/06 05:47:32;;;;;;;4.18;3.70;;;18.70;99.90;;;;;;580119;248;26649;-65
2022/06/06 05:50:19;;;;;;;4.25;3.95;;;18.70;99.90;;;;;;579418;248;26663;-65
2022/06/06 05:53:02;;;;;;;3.70;3.50;;;18.90;99.90;;;;;;585949;243;26688;-65
2022/06/06 05:55:49;;;;;;;4.35;3.70;;;19.00;99.90;;;;;;590060;239;26633;-65
2022/06/06 05:58:26;;;;;;;4.30;4.00;;;19.40;99.90;;;;;;577209;248;26654;-65
2022/06/06 06:01:20;;;;;;;3.95;3.67;;;19.40;99.90;;;;;;579793;248;26639;-65
2022/06/06 06:04:03;;;;;;;3.78;3.47;;;19.40;99.90;;;;;;580155;248;26873;-65
2022/06/06 06:06:48;;;;;;;3.78;3.53;;;19.70;99.90;;;;;;579249;248;26659;-65
2022/06/06 06:09:16;;;;;;;3.75;3.45;;;19.70;99.90;;;;;;579883;248;26629;-65
2022/06/06 06:12:04;;;;;;;3.78;3.58;;;20.10;99.90;;;;;;579334;248;26675;-65
2022/06/06 06:14:47;;;;;;;4.03;3.78;;;20.40;99.90;;;;;;579737;248;26724;-65
2022/06/06 06:17:11;;;;;;;4.20;3.90;;;20.40;99.90;;;;;;579366;248;26925;-65
2022/06/06 06:19:43;;;;;;;3.87;3.67;;;20.20;99.90;;;;;;579840;247;26683;-65
2022/06/06 06:22:10;;;;;;;3.60;3.40;;;20.20;99.90;;;;;;579753;248;26635;-65
2022/06/06 06:24:38;;;;;;;3.55;3.35;;;20.30;99.90;;;;;;580354;247;26627;-65
2022/06/06 06:27:06;;;;;;;3.55;3.25;;;20.30;99.90;;;;;;579802;248;26726;-65
2022/06/06 06:29:34;;;;;;;3.75;3.55;;;20.30;99.90;;;;;;579832;247;26711;-63
2022/06/06 06:32:16;;;;;;;3.80;3.60;;;20.20;99.90;;;;;;580274;247;26632;-63
2022/06/06 06:35:12;;;;;;;3.55;3.35;;;20.20;99.90;;;;;;578544;248;26696;-63
2022/06/06 06:37:51;;;;;;;3.87;3.62;;;20.10;99.90;;;;;;579584;247;26909;-62
2022/06/06 06:40:25;;;;;;;4.40;4.10;;;20.10;99.90;;;;;;579719;246;26912;-63
2022/06/06 06:43:13;;;;;;;3.65;3.37;;;20.10;99.90;;;;;;579329;248;26933;-63
2022/06/06 06:45:44;;;;;;;3.15;2.95;;;20.30;99.90;;;;;;580749;242;26926;-63
2022/06/06 06:48:13;;;;;;;3.72;3.40;;;20.20;99.70;;;;;;580823;247;26647;-64
2022/06/06 06:50:48;;;;;;;4.03;3.47;;;20.20;99.70;;;;;;580620;247;26887;-63
2022/06/06 06:53:19;;;;;;;3.70;3.50;;;20.50;98.60;;;;;;580378;247;26688;-64
2022/06/06 06:55:47;;;;;;;3.67;3.37;;;20.40;98.60;;;;;;579721;247;26663;-63
2022/06/06 06:58:25;;;;;;;3.78;3.50;;;20.70;98.60;;;;;;580379;247;26861;-64
2022/06/06 07:00:50;;;;;;;3.72;3.53;;;20.60;97.20;;;;;;580270;246;26636;-63
2022/06/06 07:08:42;;;;;;;3.60;3.40;;;20.60;95.50;;;;;;580104;248;26895;-65
2022/06/06 07:11:19;;;;;;;3.67;3.47;;;20.80;95.40;;;;;;579980;248;26638;-65
2022/06/06 07:14:09;;;;;;;3.40;3.20;;;20.90;94.40;;;;;;580084;244;26616;-65
2022/06/06 07:16:36;;;;;;;3.58;3.37;;;20.90;93.70;;;;;;586232;242;26644;-65
2022/06/06 07:19:09;;;;;;;3.47;3.28;;;21.20;92.70;;;;;;580074;247;26635;-63
2022/06/06 07:21:37;;;;;;;3.37;3.17;;;21.20;92.60;;;;;;579849;247;26633;-64
2022/06/06 07:24:05;;;;;;;4.05;3.75;;;21.30;92.60;;;;;;579787;248;26709;-63
2022/06/06 07:26:37;;;;;;;3.35;3.15;;;21.10;90.40;;;;;;579780;245;26698;-64
2022/06/06 07:29:01;;;;;;;3.55;3.35;;;21.10;90.40;;;;;;579623;248;26714;-64
2022/06/06 07:31:31;;;;;;;4.00;3.70;;;21.10;90.40;;;;;;579832;247;26681;-64
2022/06/06 07:34:18;;;;;;;3.60;3.33;;;21.10;90.10;;;;;;578938;248;26677;-64
2022/06/06 07:37:00;;;;;;;3.62;3.37;;;21.10;89.60;;;;;;579604;248;26671;-64
2022/06/06 07:39:38;;;;;;;3.83;3.53;;;21.40;89.30;;;;;;577009;248;26693;-64
2022/06/06 07:42:19;;;;;;;3.80;3.50;;;21.40;87.10;;;;;;579346;248;26714;-64
2022/06/06 07:45:06;;;;;;;3.50;3.30;;;21.50;87.70;;;;;;579497;248;26943;-64
2022/06/06 07:47:51;;;;;;;3.25;3.08;;;21.80;85.10;;;;;;579764;248;26709;-64
2022/06/06 07:50:21;;;;;;;3.40;3.20;;;22.00;84.60;;;;;;579544;248;26689;-64
2022/06/06 07:52:49;;;;;;;3.70;3.42;;;21.90;84.30;;;;;;590734;243;26586;-64
2022/06/06 07:55:21;;;;;;;3.87;3.53;;;22.00;84.10;;;;;;580121;244;26694;-64
2022/06/06 07:58:01;;;;;;;3.85;3.55;;;22.00;84.30;;;;;;591721;241;26713;-64
2022/06/06 08:00:28;;;;;;;3.62;3.40;;;21.90;83.30;;;;;;580509;247;26647;-64
2022/06/06 08:03:05;;;;;;;3.67;3.37;;;22.00;82.60;;;;;;580652;246;26923;-64
2022/06/06 08:05:58;;;;;;;3.87;3.58;;;22.30;82.60;;;;;;580484;247;26712;-64
2022/06/06 08:08:26;;;;;;;3.42;3.22;;;22.40;81.80;;;;;;580387;248;26628;-63
2022/06/06 08:10:54;;;;;;;3.58;3.37;;;22.00;78.60;;;;;;579784;247;26599;-64
2022/06/06 08:13:28;;;;;;;3.60;3.40;;;22.20;78.40;;;;;;591128;242;26625;-64
2022/06/06 08:16:15;;;;;;;3.70;3.50;;;22.20;78.40;;;;;;580109;248;26851;-64
2022/06/06 08:18:53;;;;;;;3.70;3.50;;;22.10;79.40;;;;;;579253;248;26666;-64
2022/06/06 08:21:25;;;;;;;3.60;3.40;;;22.00;78.80;;;;;;579763;248;26889;-64
2022/06/06 08:23:52;;;;;;;3.30;3.10;;;22.10;78.80;;;;;;580069;248;26904;-64
2022/06/06 08:26:19;;;;;;;4.00;3.70;;;22.60;78.80;;;;;;580091;248;26629;-64
2022/06/06 08:28:48;;;;;;;3.50;3.20;;;22.70;77.40;;;;;;580211;247;26855;-64
2022/06/06 08:31:15;;;;;;;3.53;3.33;;;23.10;75.70;;;;;;580073;248;26597;-64
2022/06/06 08:33:43;;;;;;;3.35;3.15;;;23.50;74.10;;;;;;579962;247;26646;-64
2022/06/06 08:36:31;;;;;;;3.22;3.03;;;23.50;72.90;;;;;;579806;247;26705;-64
2022/06/06 08:39:08;;;;;;;3.47;3.28;;;23.60;72.50;;;;;;580154;242;26684;-64
2022/06/06 08:41:57;;;;;;;3.47;3.28;;;23.60;72.50;;;;;;579243;248;26676;-64
2022/06/06 08:44:29;;;;;;;3.08;2.87;;;23.20;70.30;;;;;;579458;248;26694;-64
2022/06/06 08:47:00;;;;;;;3.62;3.42;;;23.00;70.80;;;;;;579447;248;26634;-64
2022/06/06 08:52:18;;;;;;;3.92;3.70;;;22.70;70.30;;;;;;579859;248;26678;-64
2022/06/06 08:54:56;;;;;;;3.72;3.50;;;22.40;70.80;;;;;;578644;248;26742;-64
2022/06/06 08:57:26;;;;;;;3.15;2.95;;;22.10;71.00;;;;;;581080;240;26894;-64
2022/06/06 09:00:03;;;;;;;3.92;3.20;;;22.20;71.20;;;;;;592553;242;26656;-65
2022/06/06 09:02:51;;;;;;;3.90;3.47;;;22.60;69.50;;;;;;593167;242;26632;-64
2022/06/06 09:05:35;;;;;;;3.17;2.97;;;23.10;68.80;;;;;;579912;244;26655;-64
2022/06/06 09:08:07;;;;;;;3.58;3.37;;;23.30;68.50;;;;;;582469;244;26648;-64
2022/06/06 09:10:35;;;;;;;3.28;3.08;;;23.30;68.20;;;;;;580299;247;26927;-64
2022/06/06 09:13:13;;;;;;;3.35;3.10;;;23.30;66.80;;;;;;593282;242;26624;-64
2022/06/06 09:15:52;;;;;;;3.55;3.25;;;23.30;67.20;;;;;;591005;243;26692;-64
2022/06/06 09:18:29;;;;;;;3.15;2.95;;;23.70;65.80;;;;;;591144;243;26630;-64
2022/06/06 09:21:08;;;;;;;2.83;2.70;;;23.70;65.80;;;;;;593214;242;26675;-64
2022/06/06 09:23:52;;;;;;;2.30;2.20;;;24.30;64.30;;;;;;580442;246;26679;-64
2022/06/06 09:26:40;;;;;;;2.78;2.67;;;24.30;61.70;;;;;;596730;241;26865;-63
2022/06/06 09:29:32;;;;;;;3.00;2.80;;;24.20;62.00;;;;;;591931;242;26609;-64
2022/06/06 09:32:08;;;;;;;3.15;2.95;;;24.20;60.90;;;;;;591989;242;26941;-64
2022/06/06 09:34:46;;;;;;;3.25;3.00;;;24.10;62.40;;;;;;593055;242;26876;-64
2022/06/06 09:37:26;;;;;;;2.80;2.40;;;24.20;62.70;;;;;;580283;247;26633;-63
2022/06/06 09:39:56;;;;;;;2.85;2.40;;;24.20;62.10;;;;;;596189;241;26630;-64
2022/06/06 09:42:35;;;;;;;3.03;2.83;;;24.70;60.90;;;;;;593750;242;26578;-64
2022/06/06 09:45:17;;;;;;;3.45;3.15;;;25.00;60.10;;;;;;580486;246;26906;-64
2022/06/06 09:47:58;;;;;;;2.95;2.75;;;25.30;59.30;;;;;;579156;239;26679;-65
2022/06/06 09:50:52;;;;;;;8.02;3.78;;;25.30;59.40;;;;;;595032;240;26669;-64
2022/06/06 09:53:27;;;;;;;3.55;3.35;;;25.30;59.40;;;;;;591517;240;26894;-64
2022/06/06 10:01:18;;;;;;;4.30;3.08;;;24.90;58.90;;;;;;612319;235;26639;-63
2022/06/06 10:04:07;;;;;;;4.57;3.37;;;24.80;58.80;;;;;;602073;235;26648;-64
2022/06/06 10:06:49;;;;;;;3.10;2.80;;;24.70;59.20;;;;;;593912;235;26883;-64
2022/06/06 10:09:30;;;;;;;4.60;2.78;;;24.70;58.30;;;;;;602705;232;26637;-64
2022/06/06 10:12:19;;;;;;;3.12;2.85;;;24.80;58.80;;;;;;607553;234;27251;-64
2022/06/06 10:14:53;;;;;;;3.50;3.20;;;24.70;58.80;;;;;;601514;234;26619;-63
2022/06/06 10:17:39;;;;;;;2.87;2.65;;;24.80;59.10;;;;;;603949;235;26855;-63
2022/06/06 10:20:37;;;;;;;3.00;2.80;;;25.00;59.00;;;;;;598403;236;26652;-62
2022/06/06 10:23:16;;;;;;;3.30;3.10;;;25.40;58.20;;;;;;596820;235;26662;-66
2022/06/06 10:26:05;;;;;;;4.90;4.40;;;25.60;57.40;;;;;;605610;234;26616;-67
2022/06/06 10:28:52;;;;;;;4.07;3.75;;;25.70;57.10;;;;;;598074;232;26659;-66
2022/06/06 10:31:41;;;;;;;4.45;3.53;;;25.60;57.00;;;;;;601096;230;26669;-65
2022/06/06 10:34:09;;;;;;;3.92;3.58;;;25.70;56.50;;;;;;593835;233;26709;-66
2022/06/06 10:36:57;;;;;;;3.20;2.92;;;25.40;56.60;;;;;;603243;236;26597;-65
2022/06/06 10:39:39;;;;;;;4.18;3.28;;;25.10;57.30;;;;;;601902;235;26834;-63
2022/06/06 10:42:11;;;;;;;3.50;3.20;;;25.00;57.70;;;;;;601727;237;26607;-62
2022/06/06 10:44:51;;;;;;;3.65;3.35;;;25.00;57.70;;;;;;601815;239;26589;-63
2022/06/06 10:47:23;;;;;;;7.28;3.00;;;25.10;58.30;;;;;;601789;237;26586;-62
2022/06/06 10:49:57;;;;;;;4.40;2.87;;;25.10;58.30;;;;;;601215;239;26844;-63
2022/06/06 10:52:45;;;;;;;5.37;3.80;;;25.00;58.20;;;;;;601524;237;26582;-63
2022/06/06 10:55:21;;;;;;;5.03;3.22;;;25.00;58.00;;;;;;597200;239;26613;-62
2022/06/06 10:58:01;;;;;;;3.55;3.25;;;25.70;57.80;;;;;;600846;239;26637;-62
2022/06/06 11:00:52;;;;;;;3.30;3.00;;;26.00;57.00;;;;;;603757;234;26878;-62
2022/06/06 11:03:26;;;;;;;4.93;3.00;;;25.90;57.00;;;;;;607737;235;26617;-63
2022/06/06 11:06:12;;;;;;;3.37;3.08;;;26.30;56.70;;;;;;604971;234;26644;-65
2022/06/06 11:08:59;;;;;;;2.80;2.60;;;25.70;56.90;;;;;;604360;235;26641;-65
2022/06/06 11:11:53;;;;;;;3.42;3.12;;;25.90;57.40;;;;;;595555;234;26652;-65
2022/06/06 11:14:36;;;;;;;3.33;3.08;;;25.90;57.50;;;;;;597565;236;26669;-63
2022/06/06 11:17:16;;;;;;;2.45;2.33;;;25.60;56.80;;;;;;604435;235;26651;-64
2022/06/06 11:20:03;;;;;;;2.50;2.35;;;25.60;56.80;;;;;;606096;235;26873;-64
2022/06/06 11:22:41;;;;;;;3.50;3.20;;;25.90;56.80;;;;;;602216;236;26650;-63
2022/06/06 11:25:11;;;;;;;3.30;3.10;;;25.80;56.60;;;;;;604765;235;26633;-64
2022/06/06 11:27:45;;;;;;;3.37;3.17;;;26.20;56.40;;;;;;603821;236;26855;-63
2022/06/06 11:30:28;;;;;;;3.00;2.80;;;26.30;55.50;;;;;;604096;236;26654;-64
2022/06/06 11:33:04;;;;;;;2.65;2.45;;;26.50;54.70;;;;;;608365;235;26648;-65
2022/06/06 11:35:41;;;;;;;10.07;4.57;;;26.70;54.90;;;;;;603826;235;26598;-65
2022/06/06 11:38:29;;;;;;;14.95;6.43;;;26.90;54.60;;;;;;612657;234;26637;-64
2022/06/06 11:41:22;;;;;;;3.10;2.90;;;27.30;53.90;;;;;;592599;239;26944;-65
2022/06/06 11:44:10;;;;;;;13.32;5.60;;;27.30;52.80;;;;;;608412;236;26826;-64
2022/06/06 11:47:02;;;;;;;10.68;5.60;;;27.00;53.10;;;;;;593297;239;26701;-65
2022/06/06 11:49:41;;;;;;;9.98;4.87;;;27.00;53.10;;;;;;594610;237;26851;-64
2022/06/06 11:52:28;;;;;;;3.75;3.45;;;26.90;53.60;;;;;;604369;236;26641;-65
2022/06/06 11:55:28;;;;;;;3.83;3.10;;;26.80;53.50;;;;;;602171;234;26653;-64
2022/06/06 11:58:12;;;;;;;3.97;3.08;;;26.90;53.70;;;;;;583857;234;26668;-65
2022/06/06 12:00:47;;;;;;;2.40;2.30;;;27.00;53.20;;;;;;594860;235;26655;-65
2022/06/06 12:03:22;;;;;;;3.80;3.00;;;27.70;52.20;;;;;;607945;235;26668;-63
2022/06/06 12:06:00;;;;;;;2.90;2.70;;;27.60;52.10;;;;;;603789;234;26860;-65
2022/06/06 12:08:42;;;;;;;4.15;3.30;;;27.90;51.60;;;;;;613072;234;26640;-65
2022/06/06 12:11:16;;;;;;;11.80;5.45;;;27.40;51.30;;;;;;610795;234;26650;-64
2022/06/06 12:13:51;;;;;;;17.20;6.70;;;27.40;50.70;;;;;;603313;234;26905;-65
2022/06/06 12:16:27;;;;;;;17.52;6.87;;;27.30;51.50;;;;;;607431;236;26597;-64
2022/06/06 12:19:11;;;;;;;15.93;6.22;;;27.30;51.20;;;;;;602825;237;26665;-64
2022/06/06 12:21:59;;;;;;;8.60;4.72;;;27.20;51.40;;;;;;600869;238;26649;-66
2022/06/06 12:24:34;;;;;;;16.40;6.35;;;27.30;51.70;;;;;;602897;238;26635;-66
2022/06/06 12:27:27;;;;;;;6.03;3.85;;;27.40;51.30;;;;;;606374;236;26867;-65
2022/06/06 12:30:12;;;;;;;6.00;3.58;;;27.20;51.40;;;;;;602483;233;27234;-65
2022/06/06 12:32:48;;;;;;;10.63;5.28;;;27.00;51.80;;;;;;606644;236;26585;-64
2022/06/06 12:35:22;;;;;;;4.12;3.10;;;26.80;52.20;;;;;;603297;235;26618;-65
2022/06/06 12:38:06;;;;;;;8.02;4.37;;;26.50;52.70;;;;;;603230;235;26629;-66
2022/06/06 12:40:36;;;;;;;3.30;3.00;;;26.00;53.30;;;;;;610701;234;26648;-66
2022/06/06 12:43:04;;;;;;;7.50;3.53;;;25.80;53.80;;;;;;602045;237;26820;-66
2022/06/06 12:45:48;;;;;;;7.15;4.40;;;25.60;54.50;;;;;;602648;238;26628;-66
2022/06/06 12:48:33;;;;;;;4.78;3.28;;;25.60;60.90;;;;;;609961;235;26593;-64
2022/06/06 12:51:03;;;;;;;3.03;2.78;;;25.60;61.30;;;;;;593800;239;27202;-64
2022/06/06 12:53:50;;;;;;;4.03;2.95;;;25.70;61.10;;;;;;605697;235;26642;-62
2022/06/06 12:56:17;;;;;;;5.53;3.33;;;26.30;62.00;;;;;;601986;234;26873;-65
2022/06/06 12:58:44;;;;;;;3.85;2.97;;;27.00;62.60;;;;;;607315;234;26594;-64
2022/06/06 13:01:38;;;;;;;4.30;3.75;;;27.90;61.60;;;;;;606486;236;26903;-63
2022/06/06 13:04:25;;;;;;;2.62;2.42;;;28.40;64.60;;;;;;596114;239;26676;-64
2022/06/06 13:07:01;;;;;;;4.22;3.75;;;28.60;59.00;;;;;;594667;239;26601;-63
2022/06/06 13:09:53;;;;;;;2.65;2.45;;;28.80;58.20;;;;;;598400;239;26682;-63
2022/06/06 13:12:26;;;;;;;2.70;2.50;;;28.80;57.80;;;;;;596756;240;26670;-63
2022/06/06 13:14:57;;;;;;;3.60;2.80;;;28.90;61.20;;;;;;606130;236;26617;-64
2022/06/06 13:17:25;;;;;;;7.82;3.85;;;29.90;54.20;;;;;;602358;236;26842;-64
2022/06/06 13:19:53;;;;;;;2.62;2.42;;;30.90;54.20;;;;;;608314;236;26657;-64
2022/06/06 13:22:31;;;;;;;2.83;2.60;;;32.20;50.70;;;;;;602659;236;26614;-63
2022/06/06 13:25:05;;;;;;;2.80;2.50;;;33.50;49.80;;;;;;605642;236;26910;-63
2022/06/06 13:27:32;;;;;;;2.40;2.20;;;34.80;46.30;;;;;;603612;237;26829;-64
2022/06/06 13:30:19;;;;;;;2.00;1.90;;;36.40;42.80;;;;;;603010;235;26607;-65
2022/06/06 13:33:03;;;;;;;2.67;2.47;;;37.80;39.00;;;;;;607152;235;26597;-65
2022/06/06 13:35:32;;;;;;;5.47;4.03;;;37.80;38.40;;;;;;603150;236;26592;-61
2022/06/06 13:38:00;;;;;;;7.03;5.37;;;41.60;34.90;;;;;;603470;238;26579;-63
2022/06/06 13:40:32;;;;;;;15.07;9.60;;;40.70;33.80;;;;;;603305;236;27029;-64
2022/06/06 13:43:03;;;;;;;3.72;3.42;;;42.70;33.10;;;;;;602050;237;26645;-62
2022/06/06 13:45:34;;;;;;;3.53;3.22;;;42.60;33.00;;;;;;606789;235;26834;-64
2022/06/06 13:48:17;;;;;;;4.15;3.75;;;41.00;33.70;;;;;;605039;233;26646;-63
2022/06/06 13:51:03;;;;;;;10.20;7.78;;;41.80;34.10;;;;;;604203;238;26863;-62